Viking Queen — WDB9919 — position and weather

sailwx.info

Track history (hours):
 
Tides and Currents Weather Stations Pressure Air Temp Water Temp Dewpoint Dewpoint Depression Visibility Wind Speed Wind Dir Waves Ship Positions

Viking Queen

More information available from US FCC via Universal Licensing System and Coast Guard Vessel Documentation Center.

Last reported at 2014-Sep-14 04:21 UTC. Time now 2014-Sep-22 10:17 UTC.
Position N 30°04' W 090°53'.
Warning: this ship's position is 8 days out of date.

Length 55 m; draft 3.2 m.

Type: Towing. MMSI: 366985050.

Date/timePositionNaut miles runAvg speedWind from/ knotsBaromVisibWave heightAir tempDewpointWater temp
2014-Sep-14 04:21N 30°04' W 090°53'4 5.1
2014-Sep-14 03:31N 30°00' W 090°50'4 4.4
2014-Sep-14 02:33N 30°01' W 090°45'6 6.1
2014-Sep-14 01:34N 30°03' W 090°38'19 4.7
2014-Sep-13 21:32N 29°58' W 090°18'0 0.1
2014-Sep-13 18:28N 29°58' W 090°17'6 2.8
2014-Sep-13 16:09N 29°59' W 090°24'4 6.7
2014-Sep-13 15:33N 30°01' W 090°28'7 6.7
2014-Sep-13 14:33N 30°03' W 090°36'9 6.9
2014-Sep-13 13:16N 30°01' W 090°46'  
Track history (hours):
 
Tides and Currents Weather Stations Pressure Air Temp Water Temp Dewpoint Dewpoint Depression Visibility Wind Speed Wind Dir Waves Ship Positions

Viking Queen

More information available from US FCC via Universal Licensing System and Coast Guard Vessel Documentation Center.

Last reported at 2014-Sep-14 04:21 UTC. Time now 2014-Sep-22 10:17 UTC.
Position N 30°04' W 090°53'.
Warning: this ship's position is 8 days out of date.

Length 55 m; draft 3.2 m.

Type: Towing. MMSI: 366985050.

Date/timePositionNaut miles runAvg speedWind from/ knotsBaromVisibWave heightAir tempDewpointWater temp
2014-Sep-14 04:21N 30°04' W 090°53'4 5.1
2014-Sep-14 03:31N 30°00' W 090°50'4 4.4
2014-Sep-14 02:33N 30°01' W 090°45'6 6.1
2014-Sep-14 01:34N 30°03' W 090°38'19 4.7
2014-Sep-13 21:32N 29°58' W 090°18'0 0.1
2014-Sep-13 18:28N 29°58' W 090°17'6 2.8
2014-Sep-13 16:09N 29°59' W 090°24'4 6.7
2014-Sep-13 15:33N 30°01' W 090°28'7 6.7
2014-Sep-13 14:33N 30°03' W 090°36'9 6.9
2014-Sep-13 13:16N 30°01' W 090°46'  

Dump ship's entire track history